sensor_id;sensor_type;location;lat;lon;timestamp;pressure;altitude;pressure_sealevel;temperature;humidity
75942;BME280;64622;46.220;19.878;2022-12-10T00:00:45;99067.81;;;10.55;100.00
75942;BME280;64622;46.220;19.878;2022-12-10T00:03:11;99070.13;;;10.43;100.00
75942;BME280;64622;46.220;19.878;2022-12-10T00:05:38;99071.06;;;10.50;100.00
75942;BME280;64622;46.220;19.878;2022-12-10T00:08:04;99087.66;;;10.46;100.00
75942;BME280;64622;46.220;19.878;2022-12-10T00:10:31;99079.09;;;10.50;100.00
75942;BME280;64622;46.220;19.878;2022-12-10T00:12:57;99077.72;;;10.40;100.00
75942;BME280;64622;46.220;19.878;2022-12-10T00:15:24;99070.72;;;10.39;100.00
75942;BME280;64622;46.220;19.878;2022-12-10T00:17:51;99076.50;;;10.42;100.00
75942;BME280;64622;46.220;19.878;2022-12-10T00:20:17;99069.00;;;10.52;100.00
75942;BME280;64622;46.220;19.878;2022-12-10T00:22:43;99075.12;;;10.46;100.00
75942;BME280;64622;46.220;19.878;2022-12-10T00:25:10;99055.47;;;10.39;100.00
75942;BME280;64622;46.220;19.878;2022-12-10T00:27:36;99069.50;;;10.41;100.00
75942;BME280;64622;46.220;19.878;2022-12-10T00:30:03;99061.41;;;10.35;100.00
75942;BME280;64622;46.220;19.878;2022-12-10T00:32:31;99086.63;;;10.47;100.00
75942;BME280;64622;46.220;19.878;2022-12-10T00:34:57;99063.44;;;10.33;100.00
75942;BME280;64622;46.220;19.878;2022-12-10T00:37:23;99073.94;;;10.34;100.00
75942;BME280;64622;46.220;19.878;2022-12-10T00:39:50;99066.84;;;10.41;100.00
75942;BME280;64622;46.220;19.878;2022-12-10T00:42:17;99066.00;;;10.41;100.00
75942;BME280;64622;46.220;19.878;2022-12-10T00:44:43;99088.06;;;10.43;100.00
75942;BME280;64622;46.220;19.878;2022-12-10T00:47:10;99095.59;;;10.39;100.00
75942;BME280;64622;46.220;19.878;2022-12-10T00:49:36;99083.06;;;10.40;100.00
75942;BME280;64622;46.220;19.878;2022-12-10T00:52:02;99088.50;;;10.32;100.00
75942;BME280;64622;46.220;19.878;2022-12-10T00:54:30;99086.13;;;10.22;100.00
75942;BME280;64622;46.220;19.878;2022-12-10T00:56:57;99083.91;;;10.26;100.00
75942;BME280;64622;46.220;19.878;2022-12-10T00:59:23;99072.84;;;10.29;100.00
75942;BME280;64622;46.220;19.878;2022-12-10T01:01:50;99077.63;;;10.33;100.00
75942;BME280;64622;46.220;19.878;2022-12-10T01:04:19;99073.47;;;10.31;100.00
75942;BME280;64622;46.220;19.878;2022-12-10T01:06:47;99082.22;;;10.39;100.00
75942;BME280;64622;46.220;19.878;2022-12-10T01:09:21;99071.16;;;10.42;100.00
75942;BME280;64622;46.220;19.878;2022-12-10T01:11:49;99073.00;;;10.42;100.00
75942;BME280;64622;46.220;19.878;2022-12-10T01:14:22;99074.00;;;10.41;100.00
75942;BME280;64622;46.220;19.878;2022-12-10T01:16:53;99071.06;;;10.36;100.00
75942;BME280;64622;46.220;19.878;2022-12-10T01:19:21;99085.75;;;10.40;100.00
75942;BME280;64622;46.220;19.878;2022-12-10T01:21:51;99076.41;;;10.36;100.00
75942;BME280;64622;46.220;19.878;2022-12-10T01:24:20;99087.22;;;10.42;100.00
75942;BME280;64622;46.220;19.878;2022-12-10T01:26:46;99065.72;;;10.50;100.00
75942;BME280;64622;46.220;19.878;2022-12-10T01:29:13;99070.53;;;10.40;100.00
75942;BME280;64622;46.220;19.878;2022-12-10T01:31:40;99066.00;;;10.41;100.00
75942;BME280;64622;46.220;19.878;2022-12-10T01:34:10;99073.91;;;10.49;100.00
75942;BME280;64622;46.220;19.878;2022-12-10T01:36:40;99076.94;;;10.60;99.46
75942;BME280;64622;46.220;19.878;2022-12-10T01:39:10;99064.03;;;10.49;99.38
75942;BME280;64622;46.220;19.878;2022-12-10T01:46:45;99088.81;;;10.72;97.33
75942;BME280;64622;46.220;19.878;2022-12-10T01:49:21;99096.81;;;10.72;97.23
75942;BME280;64622;46.220;19.878;2022-12-10T01:51:52;99101.72;;;10.69;97.28
75942;BME280;64622;46.220;19.878;2022-12-10T01:54:26;99098.72;;;10.57;98.19
75942;BME280;64622;46.220;19.878;2022-12-10T01:57:02;99115.34;;;10.53;98.92
75942;BME280;64622;46.220;19.878;2022-12-10T01:59:30;99124.09;;;10.47;99.36
75942;BME280;64622;46.220;19.878;2022-12-10T02:05:03;99129.44;;;10.61;98.33
75942;BME280;64622;46.220;19.878;2022-12-10T02:07:43;99143.06;;;10.52;99.17
75942;BME280;64622;46.220;19.878;2022-12-10T02:13:05;99145.16;;;10.35;100.00
75942;BME280;64622;46.220;19.878;2022-12-10T02:15:40;99150.22;;;10.30;100.00
75942;BME280;64622;46.220;19.878;2022-12-10T02:18:12;99164.34;;;10.24;100.00
75942;BME280;64622;46.220;19.878;2022-12-10T02:20:47;99193.09;;;10.22;100.00
75942;BME280;64622;46.220;19.878;2022-12-10T02:23:26;99209.28;;;10.06;100.00
75942;BME280;64622;46.220;19.878;2022-12-10T02:26:26;99188.44;;;10.02;100.00
75942;BME280;64622;46.220;19.878;2022-12-10T02:29:19;99204.25;;;10.03;100.00
75942;BME280;64622;46.220;19.878;2022-12-10T02:31:50;99205.66;;;9.99;100.00
75942;BME280;64622;46.220;19.878;2022-12-10T02:34:20;99187.88;;;9.92;100.00
75942;BME280;64622;46.220;19.878;2022-12-10T02:36:50;99199.00;;;9.95;100.00
75942;BME280;64622;46.220;19.878;2022-12-10T02:39:23;99207.94;;;9.88;100.00
75942;BME280;64622;46.220;19.878;2022-12-10T02:41:54;99211.41;;;9.88;100.00
75942;BME280;64622;46.220;19.878;2022-12-10T02:44:23;99214.31;;;9.87;100.00
75942;BME280;64622;46.220;19.878;2022-12-10T02:46:54;99200.84;;;9.95;100.00
75942;BME280;64622;46.220;19.878;2022-12-10T02:49:24;99201.31;;;9.98;100.00
75942;BME280;64622;46.220;19.878;2022-12-10T02:51:52;99192.19;;;9.93;100.00
75942;BME280;64622;46.220;19.878;2022-12-10T02:54:41;99184.97;;;9.93;100.00
75942;BME280;64622;46.220;19.878;2022-12-10T03:02:41;99193.91;;;9.86;100.00
75942;BME280;64622;46.220;19.878;2022-12-10T03:05:32;99181.50;;;9.93;100.00
75942;BME280;64622;46.220;19.878;2022-12-10T03:11:06;99173.91;;;10.04;100.00
75942;BME280;64622;46.220;19.878;2022-12-10T03:13:39;99174.97;;;9.95;100.00
75942;BME280;64622;46.220;19.878;2022-12-10T03:16:09;99182.81;;;9.97;100.00
75942;BME280;64622;46.220;19.878;2022-12-10T03:18:37;99189.06;;;9.89;100.00
75942;BME280;64622;46.220;19.878;2022-12-10T03:21:06;99184.34;;;9.91;100.00
75942;BME280;64622;46.220;19.878;2022-12-10T03:23:38;99164.44;;;9.79;100.00
75942;BME280;64622;46.220;19.878;2022-12-10T03:26:08;99173.44;;;9.78;100.00
75942;BME280;64622;46.220;19.878;2022-12-10T03:28:41;99171.31;;;9.74;100.00
75942;BME280;64622;46.220;19.878;2022-12-10T03:31:10;99164.16;;;9.74;100.00
75942;BME280;64622;46.220;19.878;2022-12-10T03:33:39;99157.84;;;9.67;100.00
75942;BME280;64622;46.220;19.878;2022-12-10T03:36:06;99158.31;;;9.71;100.00
75942;BME280;64622;46.220;19.878;2022-12-10T03:38:35;99152.88;;;9.64;100.00
75942;BME280;64622;46.220;19.878;2022-12-10T03:41:03;99148.16;;;9.66;100.00
75942;BME280;64622;46.220;19.878;2022-12-10T03:43:29;99145.78;;;9.71;100.00
75942;BME280;64622;46.220;19.878;2022-12-10T03:45:56;99136.19;;;9.62;100.00
75942;BME280;64622;46.220;19.878;2022-12-10T03:48:22;99143.38;;;9.62;100.00
75942;BME280;64622;46.220;19.878;2022-12-10T03:50:49;99149.38;;;9.64;100.00
75942;BME280;64622;46.220;19.878;2022-12-10T03:53:16;99136.72;;;9.58;100.00
75942;BME280;64622;46.220;19.878;2022-12-10T03:55:42;99142.38;;;9.63;100.00
75942;BME280;64622;46.220;19.878;2022-12-10T03:58:08;99131.69;;;9.63;100.00
75942;BME280;64622;46.220;19.878;2022-12-10T04:00:35;99119.22;;;9.55;100.00
75942;BME280;64622;46.220;19.878;2022-12-10T04:03:02;99123.38;;;9.58;100.00
75942;BME280;64622;46.220;19.878;2022-12-10T04:05:28;99111.03;;;9.57;100.00
75942;BME280;64622;46.220;19.878;2022-12-10T04:07:55;99111.56;;;9.52;100.00
75942;BME280;64622;46.220;19.878;2022-12-10T04:10:21;99118.38;;;9.55;100.00
75942;BME280;64622;46.220;19.878;2022-12-10T04:12:48;99118.47;;;9.47;100.00
75942;BME280;64622;46.220;19.878;2022-12-10T04:15:38;99115.72;;;9.55;100.00
75942;BME280;64622;46.220;19.878;2022-12-10T04:18:23;99119.75;;;9.51;100.00
75942;BME280;64622;46.220;19.878;2022-12-10T04:20:50;99122.06;;;9.54;100.00
75942;BME280;64622;46.220;19.878;2022-12-10T04:23:34;99132.94;;;9.52;100.00
75942;BME280;64622;46.220;19.878;2022-12-10T04:26:20;99137.16;;;9.47;100.00
75942;BME280;64622;46.220;19.878;2022-12-10T04:29:06;99123.87;;;9.39;100.00
75942;BME280;64622;46.220;19.878;2022-12-10T04:31:33;99127.56;;;9.38;100.00
75942;BME280;64622;46.220;19.878;2022-12-10T04:34:00;99135.88;;;9.43;100.00
75942;BME280;64622;46.220;19.878;2022-12-10T04:36:26;99145.59;;;9.36;100.00
75942;BME280;64622;46.220;19.878;2022-12-10T04:38:53;99139.44;;;9.35;100.00
75942;BME280;64622;46.220;19.878;2022-12-10T04:41:20;99144.09;;;9.33;100.00
75942;BME280;64622;46.220;19.878;2022-12-10T04:43:46;99120.78;;;9.27;100.00
75942;BME280;64622;46.220;19.878;2022-12-10T04:46:13;99141.25;;;9.35;100.00
75942;BME280;64622;46.220;19.878;2022-12-10T04:48:40;99125.31;;;9.27;100.00
75942;BME280;64622;46.220;19.878;2022-12-10T04:51:06;99131.87;;;9.39;100.00
75942;BME280;64622;46.220;19.878;2022-12-10T04:53:33;99140.19;;;9.44;100.00
75942;BME280;64622;46.220;19.878;2022-12-10T04:55:59;99134.22;;;9.42;100.00
75942;BME280;64622;46.220;19.878;2022-12-10T04:58:27;99136.38;;;9.38;100.00
75942;BME280;64622;46.220;19.878;2022-12-10T05:01:05;99144.06;;;9.41;100.00
75942;BME280;64622;46.220;19.878;2022-12-10T05:03:32;99147.44;;;9.35;100.00
75942;BME280;64622;46.220;19.878;2022-12-10T05:06:06;99139.44;;;9.35;100.00
75942;BME280;64622;46.220;19.878;2022-12-10T05:08:34;99151.94;;;9.35;100.00
75942;BME280;64622;46.220;19.878;2022-12-10T05:11:03;99143.47;;;9.31;100.00
75942;BME280;64622;46.220;19.878;2022-12-10T05:13:30;99140.78;;;9.31;100.00
75942;BME280;64622;46.220;19.878;2022-12-10T05:15:57;99136.34;;;9.24;100.00
75942;BME280;64622;46.220;19.878;2022-12-10T05:18:23;99138.16;;;9.23;100.00
75942;BME280;64622;46.220;19.878;2022-12-10T05:20:50;99143.50;;;9.23;100.00
75942;BME280;64622;46.220;19.878;2022-12-10T05:23:16;99147.66;;;9.26;100.00
75942;BME280;64622;46.220;19.878;2022-12-10T05:26:04;99147.87;;;9.24;100.00
75942;BME280;64622;46.220;19.878;2022-12-10T05:28:34;99140.19;;;9.21;100.00
75942;BME280;64622;46.220;19.878;2022-12-10T05:31:01;99151.03;;;9.20;100.00
75942;BME280;64622;46.220;19.878;2022-12-10T05:33:28;99144.69;;;9.21;100.00
75942;BME280;64622;46.220;19.878;2022-12-10T05:36:00;99151.03;;;9.20;100.00
75942;BME280;64622;46.220;19.878;2022-12-10T05:38:29;99144.69;;;9.21;100.00
75942;BME280;64622;46.220;19.878;2022-12-10T05:41:22;99140.53;;;9.18;100.00
75942;BME280;64622;46.220;19.878;2022-12-10T05:43:48;99162.41;;;9.22;100.00
75942;BME280;64622;46.220;19.878;2022-12-10T05:46:20;99167.94;;;9.12;100.00
75942;BME280;64622;46.220;19.878;2022-12-10T05:48:49;99178.94;;;9.17;100.00
75942;BME280;64622;46.220;19.878;2022-12-10T05:51:21;99179.66;;;9.11;100.00
75942;BME280;64622;46.220;19.878;2022-12-10T05:53:49;99181.47;;;9.11;100.00
75942;BME280;64622;46.220;19.878;2022-12-10T05:56:18;99175.66;;;9.07;100.00
75942;BME280;64622;46.220;19.878;2022-12-10T05:58:47;99171.97;;;9.08;100.00
75942;BME280;64622;46.220;19.878;2022-12-10T06:01:17;99179.31;;;9.14;100.00
75942;BME280;64622;46.220;19.878;2022-12-10T06:03:44;99172.47;;;9.12;100.00
75942;BME280;64622;46.220;19.878;2022-12-10T06:06:11;99174.31;;;9.11;100.00
75942;BME280;64622;46.220;19.878;2022-12-10T06:08:38;99180.81;;;9.09;100.00
75942;BME280;64622;46.220;19.878;2022-12-10T06:11:09;99187.19;;;9.08;100.00
75942;BME280;64622;46.220;19.878;2022-12-10T06:13:37;99174.00;;;9.06;100.00
75942;BME280;64622;46.220;19.878;2022-12-10T06:16:08;99184.03;;;9.04;100.00
75942;BME280;64622;46.220;19.878;2022-12-10T06:18:36;99191.84;;;9.06;100.00
75942;BME280;64622;46.220;19.878;2022-12-10T06:21:04;99181.00;;;9.07;100.00
75942;BME280;64622;46.220;19.878;2022-12-10T06:23:31;99176.66;;;9.06;100.00
75942;BME280;64622;46.220;19.878;2022-12-10T06:25:58;99191.66;;;9.07;100.00
75942;BME280;64622;46.220;19.878;2022-12-10T06:28:25;99179.69;;;9.03;100.00
75942;BME280;64622;46.220;19.878;2022-12-10T06:30:58;99183.84;;;9.06;100.00
75942;BME280;64622;46.220;19.878;2022-12-10T06:33:25;99189.16;;;9.06;100.00
75942;BME280;64622;46.220;19.878;2022-12-10T06:35:52;99185.81;;;9.12;100.00
75942;BME280;64622;46.220;19.878;2022-12-10T06:38:19;99199.81;;;9.14;100.00
75942;BME280;64622;46.220;19.878;2022-12-10T06:40:46;99203.13;;;9.16;100.00
75942;BME280;64622;46.220;19.878;2022-12-10T06:43:12;99205.78;;;9.16;100.00
75942;BME280;64622;46.220;19.878;2022-12-10T06:45:40;99200.06;;;9.27;100.00
75942;BME280;64622;46.220;19.878;2022-12-10T06:48:08;99201.19;;;9.32;100.00
75942;BME280;64622;46.220;19.878;2022-12-10T06:50:34;99201.78;;;9.42;100.00
75942;BME280;64622;46.220;19.878;2022-12-10T06:53:01;99208.59;;;9.45;100.00
75942;BME280;64622;46.220;19.878;2022-12-10T06:55:29;99210.47;;;9.44;100.00
75942;BME280;64622;46.220;19.878;2022-12-10T06:57:55;99209.97;;;9.41;100.00
75942;BME280;64622;46.220;19.878;2022-12-10T07:00:22;99228.88;;;9.39;100.00
75942;BME280;64622;46.220;19.878;2022-12-10T07:02:49;99231.03;;;9.36;100.00
75942;BME280;64622;46.220;19.878;2022-12-10T07:05:16;99234.53;;;9.36;100.00
75942;BME280;64622;46.220;19.878;2022-12-10T07:07:42;99234.72;;;9.35;100.00
75942;BME280;64622;46.220;19.878;2022-12-10T07:10:10;99226.41;;;9.30;100.00
75942;BME280;64622;46.220;19.878;2022-12-10T07:12:36;99228.34;;;9.36;100.00
75942;BME280;64622;46.220;19.878;2022-12-10T07:15:04;99229.53;;;9.33;100.00
75942;BME280;64622;46.220;19.878;2022-12-10T07:17:31;99236.34;;;9.44;100.00
75942;BME280;64622;46.220;19.878;2022-12-10T07:19:57;99226.97;;;9.48;100.00
75942;BME280;64622;46.220;19.878;2022-12-10T07:22:24;99215.09;;;9.50;100.00
75942;BME280;64622;46.220;19.878;2022-12-10T07:24:51;99212.88;;;9.54;100.00
75942;BME280;64622;46.220;19.878;2022-12-10T07:27:17;99212.53;;;9.57;100.00
75942;BME280;64622;46.220;19.878;2022-12-10T07:29:44;99212.16;;;9.60;100.00
75942;BME280;64622;46.220;19.878;2022-12-10T07:32:11;99208.31;;;9.62;100.00
75942;BME280;64622;46.220;19.878;2022-12-10T07:34:38;99213.94;;;9.67;100.00
75942;BME280;64622;46.220;19.878;2022-12-10T07:37:04;99217.97;;;9.63;100.00
75942;BME280;64622;46.220;19.878;2022-12-10T07:39:31;99217.69;;;9.58;100.00
75942;BME280;64622;46.220;19.878;2022-12-10T07:41:57;99203.41;;;9.51;100.00
75942;BME280;64622;46.220;19.878;2022-12-10T07:44:25;99209.19;;;9.55;100.00
75942;BME280;64622;46.220;19.878;2022-12-10T07:46:54;99212.53;;;9.57;100.00
75942;BME280;64622;46.220;19.878;2022-12-10T07:49:21;99215.09;;;9.50;100.00
75942;BME280;64622;46.220;19.878;2022-12-10T07:51:49;99211.22;;;9.53;100.00
75942;BME280;64622;46.220;19.878;2022-12-10T07:54:17;99213.19;;;9.59;100.00
75942;BME280;64622;46.220;19.878;2022-12-10T07:56:44;99206.31;;;9.64;100.00
75942;BME280;64622;46.220;19.878;2022-12-10T07:59:11;99198.28;;;9.64;100.00
75942;BME280;64622;46.220;19.878;2022-12-10T08:01:38;99202.25;;;9.68;100.00
75942;BME280;64622;46.220;19.878;2022-12-10T08:04:05;99203.63;;;9.64;100.00
75942;BME280;64622;46.220;19.878;2022-12-10T08:06:31;99203.75;;;9.48;100.00
75942;BME280;64622;46.220;19.878;2022-12-10T08:08:58;99206.94;;;9.21;100.00
75942;BME280;64622;46.220;19.878;2022-12-10T08:11:27;99209.59;;;8.91;100.00
75942;BME280;64622;46.220;19.878;2022-12-10T08:13:54;99197.69;;;8.71;100.00
75942;BME280;64622;46.220;19.878;2022-12-10T08:16:22;99202.41;;;8.61;100.00
75942;BME280;64622;46.220;19.878;2022-12-10T08:18:49;99184.78;;;8.52;100.00
75942;BME280;64622;46.220;19.878;2022-12-10T08:21:18;99179.16;;;8.39;100.00
75942;BME280;64622;46.220;19.878;2022-12-10T08:23:45;99182.22;;;8.28;100.00
75942;BME280;64622;46.220;19.878;2022-12-10T08:26:18;99178.53;;;8.21;100.00
75942;BME280;64622;46.220;19.878;2022-12-10T08:28:46;99178.87;;;8.18;100.00
75942;BME280;64622;46.220;19.878;2022-12-10T08:31:13;99194.69;;;8.19;100.00
75942;BME280;64622;46.220;19.878;2022-12-10T08:33:41;99185.37;;;8.23;100.00
75942;BME280;64622;46.220;19.878;2022-12-10T08:36:10;99186.37;;;8.14;100.00
75942;BME280;64622;46.220;19.878;2022-12-10T08:38:38;99191.72;;;8.14;100.00
75942;BME280;64622;46.220;19.878;2022-12-10T08:41:09;99193.00;;;8.18;100.00
75942;BME280;64622;46.220;19.878;2022-12-10T08:43:37;99199.72;;;8.22;100.00
75942;BME280;64622;46.220;19.878;2022-12-10T08:46:04;99213.72;;;8.24;100.00
75942;BME280;64622;46.220;19.878;2022-12-10T08:48:31;99199.00;;;8.28;100.00
75942;BME280;64622;46.220;19.878;2022-12-10T08:50:57;99205.19;;;8.29;100.00
75942;BME280;64622;46.220;19.878;2022-12-10T08:53:24;99197.34;;;8.27;100.00
75942;BME280;64622;46.220;19.878;2022-12-10T08:55:51;99188.88;;;8.32;100.00
75942;BME280;64622;46.220;19.878;2022-12-10T08:58:19;99199.84;;;8.37;100.00
75942;BME280;64622;46.220;19.878;2022-12-10T09:00:47;99186.53;;;8.37;100.00
75942;BME280;64622;46.220;19.878;2022-12-10T09:03:13;99186.63;;;8.43;100.00
75942;BME280;64622;46.220;19.878;2022-12-10T09:05:41;99179.66;;;8.42;100.00
75942;BME280;64622;46.220;19.878;2022-12-10T09:08:09;99175.78;;;8.53;100.00
75942;BME280;64622;46.220;19.878;2022-12-10T09:10:37;99171.47;;;8.52;100.00
75942;BME280;64622;46.220;19.878;2022-12-10T09:13:03;99175.63;;;8.54;100.00
75942;BME280;64622;46.220;19.878;2022-12-10T09:15:31;99162.22;;;8.62;100.00
75942;BME280;64622;46.220;19.878;2022-12-10T09:17:57;99151.56;;;8.62;100.00
75942;BME280;64622;46.220;19.878;2022-12-10T09:20:24;99152.72;;;8.68;100.00
75942;BME280;64622;46.220;19.878;2022-12-10T09:22:51;99153.53;;;8.68;100.00
75942;BME280;64622;46.220;19.878;2022-12-10T09:25:17;99144.41;;;8.63;100.00
75942;BME280;64622;46.220;19.878;2022-12-10T09:27:47;99122.53;;;8.67;100.00
75942;BME280;64622;46.220;19.878;2022-12-10T09:30:15;99126.50;;;8.71;100.00
75942;BME280;64622;46.220;19.878;2022-12-10T09:32:41;99133.69;;;8.71;100.00
75942;BME280;64622;46.220;19.878;2022-12-10T09:35:08;99126.53;;;8.63;100.00
75942;BME280;64622;46.220;19.878;2022-12-10T09:37:34;99106.22;;;8.62;100.00
75942;BME280;64622;46.220;19.878;2022-12-10T09:40:02;99097.75;;;8.59;100.00
75942;BME280;64622;46.220;19.878;2022-12-10T09:42:53;99105.22;;;8.63;100.00
75942;BME280;64622;46.220;19.878;2022-12-10T09:45:32;99101.03;;;8.69;100.00
75942;BME280;64622;46.220;19.878;2022-12-10T09:53:12;99108.41;;;8.59;100.00
75942;BME280;64622;46.220;19.878;2022-12-10T09:55:45;99095.63;;;8.54;100.00
75942;BME280;64622;46.220;19.878;2022-12-10T09:58:19;99101.06;;;8.61;100.00
75942;BME280;64622;46.220;19.878;2022-12-10T10:00:49;99097.12;;;8.49;100.00
75942;BME280;64622;46.220;19.878;2022-12-10T10:03:18;99086.31;;;8.50;100.00
75942;BME280;64622;46.220;19.878;2022-12-10T10:05:50;99095.09;;;8.59;100.00
75942;BME280;64622;46.220;19.878;2022-12-10T10:08:33;99078.91;;;8.60;100.00
75942;BME280;64622;46.220;19.878;2022-12-10T10:11:01;99079.22;;;8.65;100.00
75942;BME280;64622;46.220;19.878;2022-12-10T10:15:54;99066.53;;;8.67;100.00
75942;BME280;64622;46.220;19.878;2022-12-10T10:18:30;99066.19;;;8.70;100.00
75942;BME280;64622;46.220;19.878;2022-12-10T10:21:00;99065.81;;;8.73;100.00
75942;BME280;64622;46.220;19.878;2022-12-10T10:23:27;99074.78;;;8.80;100.00
75942;BME280;64622;46.220;19.878;2022-12-10T10:25:54;99066.47;;;8.75;100.00
75942;BME280;64622;46.220;19.878;2022-12-10T10:28:22;99069.28;;;8.82;100.00
75942;BME280;64622;46.220;19.878;2022-12-10T10:30:50;99071.87;;;8.90;100.00
75942;BME280;64622;46.220;19.878;2022-12-10T10:33:17;99060.47;;;8.96;100.00
75942;BME280;64622;46.220;19.878;2022-12-10T10:35:48;99061.16;;;8.98;100.00
75942;BME280;64622;46.220;19.878;2022-12-10T10:38:22;99065.94;;;9.02;100.00
75942;BME280;64622;46.220;19.878;2022-12-10T10:40:52;99058.94;;;9.01;100.00
75942;BME280;64622;46.220;19.878;2022-12-10T10:43:23;99065.59;;;9.05;100.00
75942;BME280;64622;46.220;19.878;2022-12-10T10:45:54;99061.06;;;9.06;100.00
75942;BME280;64622;46.220;19.878;2022-12-10T10:48:25;99064.41;;;9.08;100.00
75942;BME280;64622;46.220;19.878;2022-12-10T10:53:43;99073.13;;;9.02;100.00
75942;BME280;64622;46.220;19.878;2022-12-10T10:56:20;99064.16;;;8.95;100.00
75942;BME280;64622;46.220;19.878;2022-12-10T11:01:18;99076.44;;;8.81;100.00
75942;BME280;64622;46.220;19.878;2022-12-10T11:03:50;99065.34;;;8.70;100.00
75942;BME280;64622;46.220;19.878;2022-12-10T11:06:20;99077.19;;;8.67;100.00
75942;BME280;64622;46.220;19.878;2022-12-10T11:08:47;99067.88;;;8.63;100.00
75942;BME280;64622;46.220;19.878;2022-12-10T11:11:31;99055.09;;;8.59;100.00
75942;BME280;64622;46.220;19.878;2022-12-10T11:14:30;99040.81;;;8.52;100.00
75942;BME280;64622;46.220;19.878;2022-12-10T11:22:29;99034.03;;;8.41;100.00
75942;BME280;64622;46.220;19.878;2022-12-10T11:24:57;99047.06;;;8.28;100.00
75942;BME280;64622;46.220;19.878;2022-12-10T11:27:53;99034.44;;;8.22;100.00
75942;BME280;64622;46.220;19.878;2022-12-10T11:30:25;99030.97;;;8.22;100.00
75942;BME280;64622;46.220;19.878;2022-12-10T11:38:23;99002.75;;;7.97;100.00
75942;BME280;64622;46.220;19.878;2022-12-10T11:41:07;98989.13;;;7.92;100.00
75942;BME280;64622;46.220;19.878;2022-12-10T11:43:47;98992.78;;;7.90;100.00
75942;BME280;64622;46.220;19.878;2022-12-10T11:46:30;98987.81;;;7.87;100.00
75942;BME280;64622;46.220;19.878;2022-12-10T11:49:04;98997.75;;;7.93;100.00
75942;BME280;64622;46.220;19.878;2022-12-10T11:51:48;98977.00;;;7.89;100.00
75942;BME280;64622;46.220;19.878;2022-12-10T11:57:22;98936.97;;;7.67;100.00
75942;BME280;64622;46.220;19.878;2022-12-10T12:00:00;98931.91;;;7.49;100.00
75942;BME280;64622;46.220;19.878;2022-12-10T12:02:43;98947.38;;;7.46;100.00
75942;BME280;64622;46.220;19.878;2022-12-10T12:08:13;98956.56;;;7.35;100.00
75942;BME280;64622;46.220;19.878;2022-12-10T12:13:40;98984.88;;;7.20;100.00
75942;BME280;64622;46.220;19.878;2022-12-10T12:16:15;98944.31;;;7.10;100.00
75942;BME280;64622;46.220;19.878;2022-12-10T12:19:07;98950.81;;;7.07;100.00
75942;BME280;64622;46.220;19.878;2022-12-10T12:21:36;98960.12;;;7.03;100.00
75942;BME280;64622;46.220;19.878;2022-12-10T12:24:08;98943.19;;;6.97;100.00
75942;BME280;64622;46.220;19.878;2022-12-10T12:26:45;98956.13;;;6.99;100.00
75942;BME280;64622;46.220;19.878;2022-12-10T12:29:28;98953.12;;;6.94;100.00
75942;BME280;64622;46.220;19.878;2022-12-10T12:32:04;98932.06;;;6.93;100.00
75942;BME280;64622;46.220;19.878;2022-12-10T12:34:47;98929.19;;;6.94;100.00
75942;BME280;64622;46.220;19.878;2022-12-10T12:37:18;98929.19;;;6.94;100.00
75942;BME280;64622;46.220;19.878;2022-12-10T12:40:13;98952.28;;;7.02;100.00
75942;BME280;64622;46.220;19.878;2022-12-10T12:42:49;98927.53;;;7.02;100.00
75942;BME280;64622;46.220;19.878;2022-12-10T12:50:43;98907.44;;;6.91;100.00
75942;BME280;64622;46.220;19.878;2022-12-10T12:53:20;98921.59;;;6.92;100.00
75942;BME280;64622;46.220;19.878;2022-12-10T12:55:53;98916.25;;;6.92;100.00
75942;BME280;64622;46.220;19.878;2022-12-10T13:00:57;98892.16;;;6.93;100.00
75942;BME280;64622;46.220;19.878;2022-12-10T13:03:55;98902.81;;;6.93;100.00
75942;BME280;64622;46.220;19.878;2022-12-10T13:06:31;98898.66;;;6.91;100.00
75942;BME280;64622;46.220;19.878;2022-12-10T13:11:42;98876.69;;;6.88;100.00
75942;BME280;64622;46.220;19.878;2022-12-10T13:19:25;98864.87;;;6.91;100.00
75942;BME280;64622;46.220;19.878;2022-12-10T13:22:12;98865.56;;;6.93;100.00
75942;BME280;64622;46.220;19.878;2022-12-10T13:25:15;98854.94;;;6.93;100.00
75942;BME280;64622;46.220;19.878;2022-12-10T13:27:55;98841.97;;;6.90;100.00
75942;BME280;64622;46.220;19.878;2022-12-10T13:33:05;98845.25;;;7.00;100.00
75942;BME280;64622;46.220;19.878;2022-12-10T13:35:42;98835.63;;;6.99;100.00
75942;BME280;64622;46.220;19.878;2022-12-10T13:38:23;98827.66;;;6.99;100.00
75942;BME280;64622;46.220;19.878;2022-12-10T13:41:01;98833.59;;;7.01;100.00
75942;BME280;64622;46.220;19.878;2022-12-10T13:44:00;98836.59;;;7.06;100.00
75942;BME280;64622;46.220;19.878;2022-12-10T13:50:05;98831.09;;;7.07;100.00
75942;BME280;64622;46.220;19.878;2022-12-10T13:52:52;98853.88;;;7.10;100.00
75942;BME280;64622;46.220;19.878;2022-12-10T13:55:39;98849.56;;;7.09;100.00
75942;BME280;64622;46.220;19.878;2022-12-10T14:06:32;98840.56;;;7.02;100.00
75942;BME280;64622;46.220;19.878;2022-12-10T14:09:01;98841.41;;;7.03;100.00
75942;BME280;64622;46.220;19.878;2022-12-10T14:11:38;98829.47;;;6.98;100.00
75942;BME280;64622;46.220;19.878;2022-12-10T14:14:11;98812.53;;;6.92;100.00
75942;BME280;64622;46.220;19.878;2022-12-10T14:16:40;98805.22;;;6.93;100.00
75942;BME280;64622;46.220;19.878;2022-12-10T14:19:12;98816.22;;;6.91;100.00
75942;BME280;64622;46.220;19.878;2022-12-10T14:21:41;98827.81;;;6.89;100.00
75942;BME280;64622;46.220;19.878;2022-12-10T14:24:41;98836.97;;;6.87;100.00
75942;BME280;64622;46.220;19.878;2022-12-10T14:29:36;98872.72;;;6.84;100.00
75942;BME280;64622;46.220;19.878;2022-12-10T14:32:04;98888.87;;;6.83;100.00